Time,TemperatureF,DewpointF,PressureIn,WindDirection,WindDirectionDegrees,WindSpeedMPH,WindSpeedGustMPH,Humidity,HourlyPrecipIn,Conditions,Clouds,dailyrainin,SoftwareType,DateUTC
2017-05-29 00:08:00,60.1,54.0,29.90,ESE,120,5.0,12.0,79,0.00,,,0.00,weatherlink.com 1.10,2017-05-29 04:08:00,
2017-05-29 00:23:00,60.1,54.0,29.90,ESE,103,12.0,12.0,79,0.00,,,0.00,weatherlink.com 1.10,2017-05-29 04:23:00,
2017-05-29 00:54:00,59.3,54.0,29.89,East,96,5.0,10.0,83,0.01,,,0.01,weatherlink.com 1.10,2017-05-29 04:54:00,
2017-05-29 01:09:00,59.1,54.0,29.88,ESE,115,7.0,11.0,84,0.01,,,0.01,weatherlink.com 1.10,2017-05-29 05:09:00,
2017-05-29 01:24:00,59.1,54.0,29.88,East,83,4.0,8.0,84,0.01,,,0.01,weatherlink.com 1.10,2017-05-29 05:24:00,
2017-05-29 01:39:00,59.3,54.0,29.88,ESE,105,3.0,11.0,83,0.01,,,0.01,weatherlink.com 1.10,2017-05-29 05:39:00,
2017-05-29 01:54:00,59.3,54.0,29.88,ESE,123,4.0,10.0,83,0.00,,,0.01,weatherlink.com 1.10,2017-05-29 05:54:00,
2017-05-29 02:09:00,59.4,54.0,29.88,ENE,58,5.0,10.0,83,0.00,,,0.01,weatherlink.com 1.10,2017-05-29 06:09:00,
2017-05-29 02:24:00,59.4,54.0,29.87,ESE,120,3.0,9.0,82,0.00,,,0.01,weatherlink.com 1.10,2017-05-29 06:24:00,
2017-05-29 02:39:00,59.3,54.0,29.87,WNW,296,4.0,10.0,82,0.00,,,0.01,weatherlink.com 1.10,2017-05-29 06:39:00,
2017-05-29 02:54:00,58.9,54.0,29.87,ESE,114,6.0,11.0,84,0.01,,,0.02,weatherlink.com 1.10,2017-05-29 06:54:00,
2017-05-29 03:09:00,58.3,54.0,29.86,ENE,72,6.0,8.0,86,0.02,,,0.03,weatherlink.com 1.10,2017-05-29 07:09:00,
2017-05-29 03:24:00,57.9,54.0,29.85,East,79,3.0,8.0,87,0.02,,,0.03,weatherlink.com 1.10,2017-05-29 07:24:00,
2017-05-29 03:39:00,57.8,54.0,29.86,NNE,33,4.0,8.0,88,0.03,,,0.04,weatherlink.com 1.10,2017-05-29 07:39:00,
2017-05-29 03:54:00,57.6,54.0,29.86,ENE,59,3.0,6.0,89,0.03,,,0.05,weatherlink.com 1.10,2017-05-29 07:54:00,
2017-05-29 04:09:00,57.5,55.0,29.86,ENE,65,4.0,4.0,90,0.03,,,0.06,weatherlink.com 1.10,2017-05-29 08:09:00,
2017-05-29 04:24:00,57.3,55.0,29.87,ENE,72,3.0,5.0,91,0.04,,,0.07,weatherlink.com 1.10,2017-05-29 08:24:00,
2017-05-29 04:39:00,57.1,55.0,29.86,NE,52,2.0,7.0,92,0.06,,,0.10,weatherlink.com 1.10,2017-05-29 08:39:00,
2017-05-29 04:54:00,57.0,55.0,29.86,East,86,3.0,5.0,93,0.09,,,0.14,weatherlink.com 1.10,2017-05-29 08:54:00,
2017-05-29 05:09:00,56.8,55.0,29.85,NE,44,2.0,7.0,94,0.10,,,0.16,weatherlink.com 1.10,2017-05-29 09:09:00,
2017-05-29 05:24:00,56.7,55.0,29.86,East,91,5.0,7.0,94,0.12,,,0.19,weatherlink.com 1.10,2017-05-29 09:24:00,
2017-05-29 05:39:00,56.6,55.0,29.87,East,83,3.0,7.0,94,0.13,,,0.23,weatherlink.com 1.10,2017-05-29 09:39:00,
2017-05-29 05:54:00,56.5,55.0,29.87,East,96,4.0,7.0,94,0.10,,,0.24,weatherlink.com 1.10,2017-05-29 09:54:00,
2017-05-29 06:09:00,56.4,55.0,29.86,ENE,75,6.0,10.0,94,0.09,,,0.25,weatherlink.com 1.10,2017-05-29 10:09:00,
2017-05-29 06:24:00,56.3,55.0,29.87,East,79,3.0,8.0,94,0.08,,,0.28,weatherlink.com 1.10,2017-05-29 10:24:00,
2017-05-29 06:39:00,56.3,55.0,29.88,NE,51,2.0,6.0,95,0.06,,,0.29,weatherlink.com 1.10,2017-05-29 10:39:00,
2017-05-29 06:54:00,56.4,55.0,29.88,ENE,76,2.0,6.0,95,0.06,,,0.30,weatherlink.com 1.10,2017-05-29 10:54:00,
2017-05-29 07:09:00,56.5,55.0,29.88,ENE,59,4.0,7.0,95,0.05,,,0.30,weatherlink.com 1.10,2017-05-29 11:09:00,
2017-05-29 07:24:00,56.5,55.0,29.87,ENE,77,4.0,7.0,95,0.02,,,0.30,weatherlink.com 1.10,2017-05-29 11:24:00,
2017-05-29 07:39:00,56.6,55.0,29.87,ENE,71,3.0,8.0,94,0.00,,,0.30,weatherlink.com 1.10,2017-05-29 11:39:00,
2017-05-29 07:54:00,56.6,55.0,29.88,ENE,77,5.0,9.0,94,0.00,,,0.30,weatherlink.com 1.10,2017-05-29 11:54:00,
2017-05-29 08:10:00,56.7,55.0,29.88,ENE,68,3.0,10.0,94,0.00,,,0.30,weatherlink.com 1.10,2017-05-29 12:10:00,
2017-05-29 08:24:00,56.7,55.0,29.88,ENE,67,4.0,8.0,94,0.01,,,0.31,weatherlink.com 1.10,2017-05-29 12:24:00,
2017-05-29 08:39:00,56.8,55.0,29.89,East,94,4.0,6.0,94,0.02,,,0.32,weatherlink.com 1.10,2017-05-29 12:39:00,
2017-05-29 08:54:00,56.7,55.0,29.89,ENE,75,3.0,8.0,94,0.02,,,0.32,weatherlink.com 1.10,2017-05-29 12:54:00,
2017-05-29 09:10:00,56.9,55.0,29.89,East,91,5.0,8.0,93,0.02,,,0.32,weatherlink.com 1.10,2017-05-29 13:10:00,
2017-05-29 09:24:00,57.2,55.0,29.90,East,96,3.0,9.0,91,0.01,,,0.32,weatherlink.com 1.10,2017-05-29 13:24:00,
2017-05-29 09:40:00,57.2,54.0,29.90,ESE,103,3.0,13.0,90,0.00,,,0.32,weatherlink.com 1.10,2017-05-29 13:40:00,
2017-05-29 09:55:00,57.2,54.0,29.89,East,87,7.0,11.0,90,0.00,,,0.32,weatherlink.com 1.10,2017-05-29 13:55:00,
2017-05-29 10:10:00,57.2,54.0,29.90,ESE,103,3.0,11.0,89,0.00,,,0.32,weatherlink.com 1.10,2017-05-29 14:10:00,
2017-05-29 10:25:00,57.3,54.0,29.90,ENE,75,4.0,8.0,88,0.00,,,0.32,weatherlink.com 1.10,2017-05-29 14:25:00,
2017-05-29 10:40:00,57.1,54.0,29.92,ENE,60,4.0,10.0,88,0.01,,,0.33,weatherlink.com 1.10,2017-05-29 14:40:00,
2017-05-29 10:55:00,57.0,54.0,29.92,NE,52,6.0,9.0,88,0.02,,,0.34,weatherlink.com 1.10,2017-05-29 14:55:00,
2017-05-29 11:10:00,57.1,54.0,29.92,East,89,7.0,9.0,89,0.03,,,0.35,weatherlink.com 1.10,2017-05-29 15:10:00,
2017-05-29 11:25:00,57.2,54.0,29.93,East,100,2.0,8.0,89,0.03,,,0.35,weatherlink.com 1.10,2017-05-29 15:25:00,
2017-05-29 11:40:00,57.3,54.0,29.93,ENE,71,3.0,7.0,88,0.03,,,0.36,weatherlink.com 1.10,2017-05-29 15:40:00,
2017-05-29 11:55:00,57.0,54.0,29.94,NE,45,2.0,6.0,89,0.04,,,0.38,weatherlink.com 1.10,2017-05-29 15:55:00,
2017-05-29 12:10:00,56.9,54.0,29.94,ESE,115,4.0,5.0,90,0.03,,,0.38,weatherlink.com 1.10,2017-05-29 16:10:00,
2017-05-29 12:25:00,57.0,55.0,29.95,ENE,63,1.0,5.0,91,0.05,,,0.40,weatherlink.com 1.10,2017-05-29 16:25:00,
2017-05-29 12:40:00,57.4,55.0,29.96,ENE,68,2.0,5.0,90,0.04,,,0.40,weatherlink.com 1.10,2017-05-29 16:40:00,
2017-05-29 12:55:00,57.9,55.0,29.97,NE,44,2.0,5.0,89,0.02,,,0.40,weatherlink.com 1.10,2017-05-29 16:55:00,
2017-05-29 13:10:00,58.4,56.0,29.96,NE,39,1.0,4.0,90,0.02,,,0.40,weatherlink.com 1.10,2017-05-29 17:10:00,
2017-05-29 13:25:00,58.8,56.0,29.96,East,84,0.0,5.0,90,0.00,,,0.40,weatherlink.com 1.10,2017-05-29 17:25:00,
2017-05-29 13:40:00,58.7,56.0,29.96,East,83,3.0,4.0,90,0.00,,,0.40,weatherlink.com 1.10,2017-05-29 17:40:00,
2017-05-29 13:55:00,59.5,56.0,29.97,NNE,27,0.0,3.0,89,0.00,,,0.40,weatherlink.com 1.10,2017-05-29 17:55:00,
2017-05-29 14:10:00,59.6,55.0,29.97,ENE,64,4.0,4.0,84,0.00,,,0.40,weatherlink.com 1.10,2017-05-29 18:10:00,
2017-05-29 14:25:00,59.0,55.0,29.99,ENE,76,0.0,4.0,85,0.00,,,0.40,weatherlink.com 1.10,2017-05-29 18:25:00,
2017-05-29 14:40:00,58.5,55.0,29.98,NNE,29,2.0,7.0,88,0.00,,,0.40,weatherlink.com 1.10,2017-05-29 18:40:00,
2017-05-29 14:55:00,58.2,55.0,29.99,North,1,1.0,6.0,88,0.00,,,0.40,weatherlink.com 1.10,2017-05-29 18:55:00,
2017-05-29 15:10:00,57.9,55.0,29.99,NNE,30,4.0,6.0,89,0.00,,,0.40,weatherlink.com 1.10,2017-05-29 19:10:00,
2017-05-29 15:25:00,58.0,55.0,30.00,North,356,2.0,4.0,89,0.00,,,0.40,weatherlink.com 1.10,2017-05-29 19:25:00,
2017-05-29 15:40:00,57.9,54.0,30.00,ENE,60,3.0,5.0,88,0.00,,,0.40,weatherlink.com 1.10,2017-05-29 19:40:00,
2017-05-29 15:55:00,57.8,54.0,30.00,NE,51,1.0,4.0,88,0.00,,,0.40,weatherlink.com 1.10,2017-05-29 19:55:00,
2017-05-29 16:10:00,57.9,54.0,29.99,NNW,339,1.0,4.0,88,0.00,,,0.40,weatherlink.com 1.10,2017-05-29 20:10:00,
2017-05-29 16:25:00,57.7,54.0,30.00,NE,49,1.0,6.0,88,0.00,,,0.40,weatherlink.com 1.10,2017-05-29 20:25:00,
2017-05-29 16:40:00,57.8,54.0,30.02,North,356,1.0,3.0,88,0.00,,,0.40,weatherlink.com 1.10,2017-05-29 20:40:00,
2017-05-29 16:55:00,57.9,54.0,30.01,NNW,343,1.0,3.0,88,0.00,,,0.40,weatherlink.com 1.10,2017-05-29 20:55:00,
2017-05-29 17:10:00,58.0,55.0,30.03,ESE,104,2.0,2.0,88,0.00,,,0.40,weatherlink.com 1.10,2017-05-29 21:10:00,
2017-05-29 17:25:00,57.9,54.0,30.03,SSE,158,2.0,3.0,88,0.00,,,0.40,weatherlink.com 1.10,2017-05-29 21:25:00,
2017-05-29 17:40:00,57.7,55.0,30.02,SSE,150,2.0,7.0,89,0.00,,,0.40,weatherlink.com 1.10,2017-05-29 21:40:00,
2017-05-29 17:55:00,57.8,55.0,30.03,SSE,148,3.0,6.0,89,0.00,,,0.40,weatherlink.com 1.10,2017-05-29 21:55:00,
2017-05-29 18:10:00,57.5,54.0,30.03,East,101,5.0,5.0,89,0.00,,,0.40,weatherlink.com 1.10,2017-05-29 22:10:00,
2017-05-29 18:25:00,57.6,54.0,30.03,ESE,105,2.0,5.0,88,0.00,,,0.40,weatherlink.com 1.10,2017-05-29 22:25:00,
2017-05-29 18:40:00,57.5,54.0,30.04,South,183,2.0,6.0,88,0.00,,,0.40,weatherlink.com 1.10,2017-05-29 22:40:00,
2017-05-29 18:55:00,57.8,54.0,30.05,SSW,198,0.0,5.0,88,0.00,,,0.40,weatherlink.com 1.10,2017-05-29 22:55:00,
2017-05-29 19:10:00,57.9,54.0,30.05,SSE,156,1.0,3.0,88,0.00,,,0.40,weatherlink.com 1.10,2017-05-29 23:10:00,